sensor_id;sensor_type;location;lat;lon;timestamp;temperature;humidity
69436;SHT31;56625;54.322;18.582;2022-08-19T00:00:10;22.48;81.12
69436;SHT31;56625;54.322;18.582;2022-08-19T00:03:01;22.54;80.99
69436;SHT31;56625;54.322;18.582;2022-08-19T00:05:31;22.50;80.93
69436;SHT31;56625;54.322;18.582;2022-08-19T00:07:59;22.47;80.92
69436;SHT31;56625;54.322;18.582;2022-08-19T00:10:27;22.46;81.00
69436;SHT31;56625;54.322;18.582;2022-08-19T00:12:55;22.42;81.06
69436;SHT31;56625;54.322;18.582;2022-08-19T00:15:23;22.39;81.21
69436;SHT31;56625;54.322;18.582;2022-08-19T00:17:51;22.38;81.27
69436;SHT31;56625;54.322;18.582;2022-08-19T00:20:20;22.37;81.25
69436;SHT31;56625;54.322;18.582;2022-08-19T00:22:48;22.30;81.25
69436;SHT31;56625;54.322;18.582;2022-08-19T00:25:17;22.20;81.45
69436;SHT31;56625;54.322;18.582;2022-08-19T00:27:57;22.17;81.67
69436;SHT31;56625;54.322;18.582;2022-08-19T00:30:26;22.14;81.70
69436;SHT31;56625;54.322;18.582;2022-08-19T00:32:58;22.17;81.76
69436;SHT31;56625;54.322;18.582;2022-08-19T00:35:26;22.21;81.63
69436;SHT31;56625;54.322;18.582;2022-08-19T00:37:54;22.26;81.53
69436;SHT31;56625;54.322;18.582;2022-08-19T00:40:23;22.33;81.43
69436;SHT31;56625;54.322;18.582;2022-08-19T00:42:52;22.35;81.29
69436;SHT31;56625;54.322;18.582;2022-08-19T00:45:22;22.33;81.20
69436;SHT31;56625;54.322;18.582;2022-08-19T00:47:58;22.19;81.26
69436;SHT31;56625;54.322;18.582;2022-08-19T00:50:40;22.12;81.44
69436;SHT31;56625;54.322;18.582;2022-08-19T00:53:20;22.12;81.50
69436;SHT31;56625;54.322;18.582;2022-08-19T00:55:55;22.17;81.34
69436;SHT31;56625;54.322;18.582;2022-08-19T00:58:27;22.17;81.17
69436;SHT31;56625;54.322;18.582;2022-08-19T01:01:01;22.17;81.23
69436;SHT31;56625;54.322;18.582;2022-08-19T01:03:31;22.14;81.21
69436;SHT31;56625;54.322;18.582;2022-08-19T01:06:19;22.01;81.36
69436;SHT31;56625;54.322;18.582;2022-08-19T01:08:48;21.88;81.50
69436;SHT31;56625;54.322;18.582;2022-08-19T01:11:16;21.83;81.69
69436;SHT31;56625;54.322;18.582;2022-08-19T01:13:44;21.85;81.69
69436;SHT31;56625;54.322;18.582;2022-08-19T01:16:17;21.82;81.62
69436;SHT31;56625;54.322;18.582;2022-08-19T01:18:49;21.75;81.89
69436;SHT31;56625;54.322;18.582;2022-08-19T01:21:21;21.71;82.13
69436;SHT31;56625;54.322;18.582;2022-08-19T01:23:59;21.67;82.12
69436;SHT31;56625;54.322;18.582;2022-08-19T01:26:28;21.64;82.11
69436;SHT31;56625;54.322;18.582;2022-08-19T01:28:58;21.59;82.01
69436;SHT31;56625;54.322;18.582;2022-08-19T01:31:31;21.55;82.13
69436;SHT31;56625;54.322;18.582;2022-08-19T01:34:00;21.57;82.17
69436;SHT31;56625;54.322;18.582;2022-08-19T01:36:31;21.64;82.08
69436;SHT31;56625;54.322;18.582;2022-08-19T01:39:19;21.72;81.94
69436;SHT31;56625;54.322;18.582;2022-08-19T01:41:51;21.80;81.81
69436;SHT31;56625;54.322;18.582;2022-08-19T01:44:22;21.84;81.64
69436;SHT31;56625;54.322;18.582;2022-08-19T01:46:51;21.78;81.31
69436;SHT31;56625;54.322;18.582;2022-08-19T01:49:20;21.64;81.48
69436;SHT31;56625;54.322;18.582;2022-08-19T01:51:51;21.54;81.91
69436;SHT31;56625;54.322;18.582;2022-08-19T01:54:23;21.51;82.18
69436;SHT31;56625;54.322;18.582;2022-08-19T01:57:06;21.51;82.24
69436;SHT31;56625;54.322;18.582;2022-08-19T01:59:38;21.53;82.19
69436;SHT31;56625;54.322;18.582;2022-08-19T02:02:10;21.59;82.19
69436;SHT31;56625;54.322;18.582;2022-08-19T02:04:38;21.65;82.04
69436;SHT31;56625;54.322;18.582;2022-08-19T02:07:06;21.69;81.77
69436;SHT31;56625;54.322;18.582;2022-08-19T02:09:35;21.61;81.62
69436;SHT31;56625;54.322;18.582;2022-08-19T02:12:04;21.50;81.73
69436;SHT31;56625;54.322;18.582;2022-08-19T02:14:35;21.40;82.08
69436;SHT31;56625;54.322;18.582;2022-08-19T02:17:04;21.41;82.18
69436;SHT31;56625;54.322;18.582;2022-08-19T02:19:32;21.42;81.93
69436;SHT31;56625;54.322;18.582;2022-08-19T02:22:00;21.36;81.93
69436;SHT31;56625;54.322;18.582;2022-08-19T02:24:28;21.31;82.23
69436;SHT31;56625;54.322;18.582;2022-08-19T02:26:56;21.34;82.31
69436;SHT31;56625;54.322;18.582;2022-08-19T02:29:24;21.42;82.17
69436;SHT31;56625;54.322;18.582;2022-08-19T02:31:52;21.49;81.89
69436;SHT31;56625;54.322;18.582;2022-08-19T02:34:21;21.51;81.85
69436;SHT31;56625;54.322;18.582;2022-08-19T02:36:49;21.49;81.75
69436;SHT31;56625;54.322;18.582;2022-08-19T02:39:18;21.44;81.68
69436;SHT31;56625;54.322;18.582;2022-08-19T02:41:46;21.31;82.08
69436;SHT31;56625;54.322;18.582;2022-08-19T02:44:14;21.20;82.48
69436;SHT31;56625;54.322;18.582;2022-08-19T02:46:58;21.26;82.58
69436;SHT31;56625;54.322;18.582;2022-08-19T02:49:25;21.34;82.41
69436;SHT31;56625;54.322;18.582;2022-08-19T02:51:53;21.39;82.33
69436;SHT31;56625;54.322;18.582;2022-08-19T02:54:21;21.38;82.32
69436;SHT31;56625;54.322;18.582;2022-08-19T02:56:49;21.33;82.47
69436;SHT31;56625;54.322;18.582;2022-08-19T02:59:17;21.38;82.63
69436;SHT31;56625;54.322;18.582;2022-08-19T03:01:49;21.48;82.38
69436;SHT31;56625;54.322;18.582;2022-08-19T03:04:18;21.52;82.14
69436;SHT31;56625;54.322;18.582;2022-08-19T03:06:47;21.55;82.18
69436;SHT31;56625;54.322;18.582;2022-08-19T03:09:15;21.60;82.06
69436;SHT31;56625;54.322;18.582;2022-08-19T03:11:47;21.60;81.95
69436;SHT31;56625;54.322;18.582;2022-08-19T03:14:19;21.60;82.10
69436;SHT31;56625;54.322;18.582;2022-08-19T03:16:48;21.64;81.96
69436;SHT31;56625;54.322;18.582;2022-08-19T03:19:19;21.62;81.83
69436;SHT31;56625;54.322;18.582;2022-08-19T03:21:51;21.56;81.91
69436;SHT31;56625;54.322;18.582;2022-08-19T03:24:19;21.55;81.98
69436;SHT31;56625;54.322;18.582;2022-08-19T03:26:50;21.60;82.06
69436;SHT31;56625;54.322;18.582;2022-08-19T03:29:25;21.65;81.81
69436;SHT31;56625;54.322;18.582;2022-08-19T03:31:58;21.71;81.71
69436;SHT31;56625;54.322;18.582;2022-08-19T03:34:31;21.76;81.46
69436;SHT31;56625;54.322;18.582;2022-08-19T03:37:07;21.75;81.51
69436;SHT31;56625;54.322;18.582;2022-08-19T03:39:41;21.78;81.44
69436;SHT31;56625;54.322;18.582;2022-08-19T03:42:09;21.79;81.43
69436;SHT31;56625;54.322;18.582;2022-08-19T03:44:58;21.85;81.27
69436;SHT31;56625;54.322;18.582;2022-08-19T03:47:26;21.89;81.15
69436;SHT31;56625;54.322;18.582;2022-08-19T03:49:54;21.89;81.02
69436;SHT31;56625;54.322;18.582;2022-08-19T03:52:22;21.85;81.20
69436;SHT31;56625;54.322;18.582;2022-08-19T03:54:50;21.89;81.22
69436;SHT31;56625;54.322;18.582;2022-08-19T03:57:19;21.96;81.04
69436;SHT31;56625;54.322;18.582;2022-08-19T03:59:50;22.00;80.89
69436;SHT31;56625;54.322;18.582;2022-08-19T04:02:18;22.01;80.91
69436;SHT31;56625;54.322;18.582;2022-08-19T04:04:46;22.05;80.94
69436;SHT31;56625;54.322;18.582;2022-08-19T04:07:14;22.07;80.71
69436;SHT31;56625;54.322;18.582;2022-08-19T04:09:43;22.10;80.73
69436;SHT31;56625;54.322;18.582;2022-08-19T04:12:11;22.06;80.56
69436;SHT31;56625;54.322;18.582;2022-08-19T04:14:39;22.06;80.75
69436;SHT31;56625;54.322;18.582;2022-08-19T04:17:07;22.10;80.82
69436;SHT31;56625;54.322;18.582;2022-08-19T04:19:35;22.17;80.74
69436;SHT31;56625;54.322;18.582;2022-08-19T04:22:04;22.21;80.47
69436;SHT31;56625;54.322;18.582;2022-08-19T04:24:33;22.28;80.62
69436;SHT31;56625;54.322;18.582;2022-08-19T04:27:02;22.45;80.43
69436;SHT31;56625;54.322;18.582;2022-08-19T04:29:33;22.69;80.04
69436;SHT31;56625;54.322;18.582;2022-08-19T04:32:01;22.88;79.55
69436;SHT31;56625;54.322;18.582;2022-08-19T04:34:36;23.06;79.27
69436;SHT31;56625;54.322;18.582;2022-08-19T04:37:25;23.25;78.77
69436;SHT31;56625;54.322;18.582;2022-08-19T04:40:03;23.44;78.53
69436;SHT31;56625;54.322;18.582;2022-08-19T04:42:52;23.71;78.12
69436;SHT31;56625;54.322;18.582;2022-08-19T04:45:22;23.93;77.77
69436;SHT31;56625;54.322;18.582;2022-08-19T04:47:54;24.13;76.97
69436;SHT31;56625;54.322;18.582;2022-08-19T04:50:46;24.26;76.62
69436;SHT31;56625;54.322;18.582;2022-08-19T04:53:15;24.46;76.32
69436;SHT31;56625;54.322;18.582;2022-08-19T04:55:44;24.68;75.98
69436;SHT31;56625;54.322;18.582;2022-08-19T04:58:12;24.77;75.11
69436;SHT31;56625;54.322;18.582;2022-08-19T05:00:40;24.77;74.88
69436;SHT31;56625;54.322;18.582;2022-08-19T05:03:09;24.78;75.13
69436;SHT31;56625;54.322;18.582;2022-08-19T05:05:38;24.81;74.83
69436;SHT31;56625;54.322;18.582;2022-08-19T05:08:12;24.76;74.50
69436;SHT31;56625;54.322;18.582;2022-08-19T05:10:57;24.75;73.70
69436;SHT31;56625;54.322;18.582;2022-08-19T05:13:26;24.72;73.25
69436;SHT31;56625;54.322;18.582;2022-08-19T05:15:55;24.69;73.07
69436;SHT31;56625;54.322;18.582;2022-08-19T05:18:25;24.65;72.73
69436;SHT31;56625;54.322;18.582;2022-08-19T05:21:32;24.63;72.44
69436;SHT31;56625;54.322;18.582;2022-08-19T05:24:21;24.66;72.22
69436;SHT31;56625;54.322;18.582;2022-08-19T05:26:50;24.66;71.95
69436;SHT31;56625;54.322;18.582;2022-08-19T05:29:20;24.67;71.67
69436;SHT31;56625;54.322;18.582;2022-08-19T05:31:49;24.71;71.59
69436;SHT31;56625;54.322;18.582;2022-08-19T05:34:19;24.85;70.62
69436;SHT31;56625;54.322;18.582;2022-08-19T05:36:55;24.84;70.31
69436;SHT31;56625;54.322;18.582;2022-08-19T05:39:26;24.71;70.46
69436;SHT31;56625;54.322;18.582;2022-08-19T05:41:58;24.68;70.33
69436;SHT31;56625;54.322;18.582;2022-08-19T05:44:31;24.66;70.58
69436;SHT31;56625;54.322;18.582;2022-08-19T05:47:03;24.76;70.49
69436;SHT31;56625;54.322;18.582;2022-08-19T05:49:34;24.90;70.41
69436;SHT31;56625;54.322;18.582;2022-08-19T05:52:05;25.02;70.09
69436;SHT31;56625;54.322;18.582;2022-08-19T05:54:39;25.13;69.63
69436;SHT31;56625;54.322;18.582;2022-08-19T05:57:09;25.26;69.18
69436;SHT31;56625;54.322;18.582;2022-08-19T05:59:39;25.35;68.74
69436;SHT31;56625;54.322;18.582;2022-08-19T06:02:07;25.45;68.70
69436;SHT31;56625;54.322;18.582;2022-08-19T06:04:35;25.50;68.37
69436;SHT31;56625;54.322;18.582;2022-08-19T06:07:03;25.53;67.95
69436;SHT31;56625;54.322;18.582;2022-08-19T06:09:39;25.54;67.97
69436;SHT31;56625;54.322;18.582;2022-08-19T06:12:26;25.47;67.66
69436;SHT31;56625;54.322;18.582;2022-08-19T06:15:01;25.36;67.69
69436;SHT31;56625;54.322;18.582;2022-08-19T06:17:33;25.33;67.77
69436;SHT31;56625;54.322;18.582;2022-08-19T06:20:04;25.36;67.68
69436;SHT31;56625;54.322;18.582;2022-08-19T06:22:38;25.33;67.30
69436;SHT31;56625;54.322;18.582;2022-08-19T06:25:09;25.31;67.60
69436;SHT31;56625;54.322;18.582;2022-08-19T06:27:39;25.30;67.55
69436;SHT31;56625;54.322;18.582;2022-08-19T06:30:28;25.22;67.69
69436;SHT31;56625;54.322;18.582;2022-08-19T06:32:56;25.27;67.93
69436;SHT31;56625;54.322;18.582;2022-08-19T06:35:24;25.42;67.50
69436;SHT31;56625;54.322;18.582;2022-08-19T06:37:52;25.53;67.35
69436;SHT31;56625;54.322;18.582;2022-08-19T06:40:21;25.61;66.48
69436;SHT31;56625;54.322;18.582;2022-08-19T06:42:49;25.69;66.78
69436;SHT31;56625;54.322;18.582;2022-08-19T06:45:22;25.78;66.52
69436;SHT31;56625;54.322;18.582;2022-08-19T06:48:02;25.84;65.87
69436;SHT31;56625;54.322;18.582;2022-08-19T06:50:30;25.94;65.85
69436;SHT31;56625;54.322;18.582;2022-08-19T06:52:58;26.04;65.60
69436;SHT31;56625;54.322;18.582;2022-08-19T06:55:30;26.14;65.20
69436;SHT31;56625;54.322;18.582;2022-08-19T06:58:03;26.26;65.03
69436;SHT31;56625;54.322;18.582;2022-08-19T07:00:32;26.34;64.20
69436;SHT31;56625;54.322;18.582;2022-08-19T07:03:01;26.36;63.83
69436;SHT31;56625;54.322;18.582;2022-08-19T07:05:41;26.37;63.66
69436;SHT31;56625;54.322;18.582;2022-08-19T07:08:12;26.43;63.58
69436;SHT31;56625;54.322;18.582;2022-08-19T07:10:44;26.55;63.23
69436;SHT31;56625;54.322;18.582;2022-08-19T07:13:13;26.65;62.94
69436;SHT31;56625;54.322;18.582;2022-08-19T07:15:41;26.72;62.83
69436;SHT31;56625;54.322;18.582;2022-08-19T07:18:09;26.80;62.40
69436;SHT31;56625;54.322;18.582;2022-08-19T07:20:39;26.87;62.56
69436;SHT31;56625;54.322;18.582;2022-08-19T07:28:16;27.36;62.14
69436;SHT31;56625;54.322;18.582;2022-08-19T07:31:03;27.52;61.20
69436;SHT31;56625;54.322;18.582;2022-08-19T07:34:31;27.62;61.06
69436;SHT31;56625;54.322;18.582;2022-08-19T07:37:12;27.78;61.04
69436;SHT31;56625;54.322;18.582;2022-08-19T07:40:34;28.02;60.53
69436;SHT31;56625;54.322;18.582;2022-08-19T07:43:07;28.14;60.30
69436;SHT31;56625;54.322;18.582;2022-08-19T07:45:41;28.29;59.93
69436;SHT31;56625;54.322;18.582;2022-08-19T07:48:13;28.40;59.14
69436;SHT31;56625;54.322;18.582;2022-08-19T07:50:44;28.49;59.45
69436;SHT31;56625;54.322;18.582;2022-08-19T07:53:14;28.60;58.84
69436;SHT31;56625;54.322;18.582;2022-08-19T07:55:42;28.61;58.87
69436;SHT31;56625;54.322;18.582;2022-08-19T07:58:11;28.69;58.68
69436;SHT31;56625;54.322;18.582;2022-08-19T08:00:43;28.85;58.52
69436;SHT31;56625;54.322;18.582;2022-08-19T08:03:15;28.99;57.91
69436;SHT31;56625;54.322;18.582;2022-08-19T08:05:46;29.04;57.14
69436;SHT31;56625;54.322;18.582;2022-08-19T08:08:33;29.08;57.50
69436;SHT31;56625;54.322;18.582;2022-08-19T08:11:20;29.21;57.09
69436;SHT31;56625;54.322;18.582;2022-08-19T08:13:50;29.28;56.73
69436;SHT31;56625;54.322;18.582;2022-08-19T08:16:40;29.38;56.82
69436;SHT31;56625;54.322;18.582;2022-08-19T08:19:14;29.51;56.91
69436;SHT31;56625;54.322;18.582;2022-08-19T08:21:58;29.71;56.51
69436;SHT31;56625;54.322;18.582;2022-08-19T08:24:47;29.92;55.64
69436;SHT31;56625;54.322;18.582;2022-08-19T08:27:15;30.06;54.88
69436;SHT31;56625;54.322;18.582;2022-08-19T08:29:44;30.10;54.91
69436;SHT31;56625;54.322;18.582;2022-08-19T08:32:12;30.15;54.67
69436;SHT31;56625;54.322;18.582;2022-08-19T08:34:41;30.22;53.93
69436;SHT31;56625;54.322;18.582;2022-08-19T08:37:10;30.23;53.54
69436;SHT31;56625;54.322;18.582;2022-08-19T08:39:42;30.22;53.29
69436;SHT31;56625;54.322;18.582;2022-08-19T08:42:12;30.28;53.04
69436;SHT31;56625;54.322;18.582;2022-08-19T08:47:44;30.44;52.24
69436;SHT31;56625;54.322;18.582;2022-08-19T08:50:34;30.52;52.63
69436;SHT31;56625;54.322;18.582;2022-08-19T08:53:13;30.67;52.04
69436;SHT31;56625;54.322;18.582;2022-08-19T08:55:59;30.83;50.81
69436;SHT31;56625;54.322;18.582;2022-08-19T08:59:04;30.95;50.42
69436;SHT31;56625;54.322;18.582;2022-08-19T09:01:56;31.15;51.12
69436;SHT31;56625;54.322;18.582;2022-08-19T09:04:28;31.33;50.08
69436;SHT31;56625;54.322;18.582;2022-08-19T09:10:20;31.45;47.92
69436;SHT31;56625;54.322;18.582;2022-08-19T09:13:16;31.39;47.59
69436;SHT31;56625;54.322;18.582;2022-08-19T09:16:18;31.35;47.67
69436;SHT31;56625;54.322;18.582;2022-08-19T09:19:19;31.43;47.20
69436;SHT31;56625;54.322;18.582;2022-08-19T09:22:29;31.53;47.20
69436;SHT31;56625;54.322;18.582;2022-08-19T09:25:07;31.59;46.67
69436;SHT31;56625;54.322;18.582;2022-08-19T09:28:32;31.61;46.69
69436;SHT31;56625;54.322;18.582;2022-08-19T09:32:35;31.69;46.89
69436;SHT31;56625;54.322;18.582;2022-08-19T09:36:17;31.75;46.02
69436;SHT31;56625;54.322;18.582;2022-08-19T09:39:16;31.80;45.66
69436;SHT31;56625;54.322;18.582;2022-08-19T09:42:05;31.84;45.05
69436;SHT31;56625;54.322;18.582;2022-08-19T09:48:31;31.94;45.34
69436;SHT31;56625;54.322;18.582;2022-08-19T09:51:07;32.04;45.17
69436;SHT31;56625;54.322;18.582;2022-08-19T09:53:38;32.14;45.15
69436;SHT31;56625;54.322;18.582;2022-08-19T09:56:09;32.24;44.60
69436;SHT31;56625;54.322;18.582;2022-08-19T09:58:39;32.39;44.48
69436;SHT31;56625;54.322;18.582;2022-08-19T10:01:08;32.54;44.17
69436;SHT31;56625;54.322;18.582;2022-08-19T10:03:38;32.60;43.96
69436;SHT31;56625;54.322;18.582;2022-08-19T10:06:06;32.63;43.52
69436;SHT31;56625;54.322;18.582;2022-08-19T10:08:44;32.56;43.69
69436;SHT31;56625;54.322;18.582;2022-08-19T10:11:17;32.56;44.17
69436;SHT31;56625;54.322;18.582;2022-08-19T10:14:06;32.62;43.43
69436;SHT31;56625;54.322;18.582;2022-08-19T10:16:43;32.48;43.10
69436;SHT31;56625;54.322;18.582;2022-08-19T10:19:14;32.30;42.88
69436;SHT31;56625;54.322;18.582;2022-08-19T10:21:52;32.27;42.93
69436;SHT31;56625;54.322;18.582;2022-08-19T10:24:27;32.30;42.97
69436;SHT31;56625;54.322;18.582;2022-08-19T10:26:56;32.38;43.45
69436;SHT31;56625;54.322;18.582;2022-08-19T10:29:30;32.47;43.24
69436;SHT31;56625;54.322;18.582;2022-08-19T10:32:16;32.42;43.04
69436;SHT31;56625;54.322;18.582;2022-08-19T10:35:04;32.40;43.15
69436;SHT31;56625;54.322;18.582;2022-08-19T10:39:05;32.64;42.45
69436;SHT31;56625;54.322;18.582;2022-08-19T10:41:47;32.72;42.29
69436;SHT31;56625;54.322;18.582;2022-08-19T10:44:26;32.86;41.55
69436;SHT31;56625;54.322;18.582;2022-08-19T10:50:36;33.25;41.10
69436;SHT31;56625;54.322;18.582;2022-08-19T10:53:58;33.41;40.54
69436;SHT31;56625;54.322;18.582;2022-08-19T10:56:27;33.47;40.35
69436;SHT31;56625;54.322;18.582;2022-08-19T10:59:24;33.51;40.20
69436;SHT31;56625;54.322;18.582;2022-08-19T11:02:03;33.40;40.57
69436;SHT31;56625;54.322;18.582;2022-08-19T11:04:34;33.29;40.98
69436;SHT31;56625;54.322;18.582;2022-08-19T11:07:03;33.28;41.75
69436;SHT31;56625;54.322;18.582;2022-08-19T11:09:38;33.33;40.93
69436;SHT31;56625;54.322;18.582;2022-08-19T11:12:20;33.32;41.17
69436;SHT31;56625;54.322;18.582;2022-08-19T11:14:52;33.38;40.64
69436;SHT31;56625;54.322;18.582;2022-08-19T11:17:22;33.37;40.82
69436;SHT31;56625;54.322;18.582;2022-08-19T11:19:51;33.47;41.13
69436;SHT31;56625;54.322;18.582;2022-08-19T11:22:19;33.55;40.44
69436;SHT31;56625;54.322;18.582;2022-08-19T11:24:47;33.60;39.96
69436;SHT31;56625;54.322;18.582;2022-08-19T11:27:15;33.57;39.96
69436;SHT31;56625;54.322;18.582;2022-08-19T11:29:43;33.60;40.17
69436;SHT31;56625;54.322;18.582;2022-08-19T11:32:21;33.58;39.73
69436;SHT31;56625;54.322;18.582;2022-08-19T11:34:54;33.59;39.59
69436;SHT31;56625;54.322;18.582;2022-08-19T11:37:50;33.56;40.05
69436;SHT31;56625;54.322;18.582;2022-08-19T11:40:22;33.51;39.97
69436;SHT31;56625;54.322;18.582;2022-08-19T11:44:13;33.35;40.42
69436;SHT31;56625;54.322;18.582;2022-08-19T11:46:45;33.10;40.31
69436;SHT31;56625;54.322;18.582;2022-08-19T11:49:15;32.94;40.95
69436;SHT31;56625;54.322;18.582;2022-08-19T11:51:48;32.96;40.98
69436;SHT31;56625;54.322;18.582;2022-08-19T11:54:20;33.02;41.06
69436;SHT31;56625;54.322;18.582;2022-08-19T11:56:48;33.07;40.71
69436;SHT31;56625;54.322;18.582;2022-08-19T11:59:16;33.17;40.77
69436;SHT31;56625;54.322;18.582;2022-08-19T12:01:44;33.21;40.30
69436;SHT31;56625;54.322;18.582;2022-08-19T12:04:12;33.25;40.36
69436;SHT31;56625;54.322;18.582;2022-08-19T12:06:40;33.39;40.86
69436;SHT31;56625;54.322;18.582;2022-08-19T12:09:09;33.54;40.54
69436;SHT31;56625;54.322;18.582;2022-08-19T12:11:38;33.60;40.51
69436;SHT31;56625;54.322;18.582;2022-08-19T12:14:09;33.65;40.25
69436;SHT31;56625;54.322;18.582;2022-08-19T12:16:44;33.48;39.61
69436;SHT31;56625;54.322;18.582;2022-08-19T12:19:19;33.22;40.27
69436;SHT31;56625;54.322;18.582;2022-08-19T12:21:49;33.20;40.69
69436;SHT31;56625;54.322;18.582;2022-08-19T12:24:19;33.28;40.62
69436;SHT31;56625;54.322;18.582;2022-08-19T12:26:50;33.39;40.48
69436;SHT31;56625;54.322;18.582;2022-08-19T12:29:21;33.53;40.07
69436;SHT31;56625;54.322;18.582;2022-08-19T12:31:59;33.64;39.39
69436;SHT31;56625;54.322;18.582;2022-08-19T12:34:31;33.67;38.90
69436;SHT31;56625;54.322;18.582;2022-08-19T12:37:10;33.67;38.79
69436;SHT31;56625;54.322;18.582;2022-08-19T12:39:46;33.72;39.27
69436;SHT31;56625;54.322;18.582;2022-08-19T12:42:15;33.82;39.55
69436;SHT31;56625;54.322;18.582;2022-08-19T12:44:49;33.90;38.77
69436;SHT31;56625;54.322;18.582;2022-08-19T12:57:12;33.82;37.97
69436;SHT31;56625;54.322;18.582;2022-08-19T13:04:58;33.14;39.64
69436;SHT31;56625;54.322;18.582;2022-08-19T13:07:28;33.20;39.71
69436;SHT31;56625;54.322;18.582;2022-08-19T13:10:06;33.28;39.40
69436;SHT31;56625;54.322;18.582;2022-08-19T13:12:37;33.45;39.22
69436;SHT31;56625;54.322;18.582;2022-08-19T13:15:11;33.60;38.87
69436;SHT31;56625;54.322;18.582;2022-08-19T13:17:54;33.54;38.98
69436;SHT31;56625;54.322;18.582;2022-08-19T13:20:55;33.49;39.17
69436;SHT31;56625;54.322;18.582;2022-08-19T13:23:42;33.55;39.00
69436;SHT31;56625;54.322;18.582;2022-08-19T13:26:14;33.61;39.18
69436;SHT31;56625;54.322;18.582;2022-08-19T13:28:43;33.59;38.81
69436;SHT31;56625;54.322;18.582;2022-08-19T13:31:32;33.67;38.56
69436;SHT31;56625;54.322;18.582;2022-08-19T13:34:29;33.65;38.34
69436;SHT31;56625;54.322;18.582;2022-08-19T13:37:02;33.73;38.08
69436;SHT31;56625;54.322;18.582;2022-08-19T13:39:32;33.83;38.19
69436;SHT31;56625;54.322;18.582;2022-08-19T13:42:06;33.88;38.18
69436;SHT31;56625;54.322;18.582;2022-08-19T13:44:36;33.82;38.01
69436;SHT31;56625;54.322;18.582;2022-08-19T13:47:06;33.79;38.04
69436;SHT31;56625;54.322;18.582;2022-08-19T13:49:35;33.84;38.62
69436;SHT31;56625;54.322;18.582;2022-08-19T13:52:04;33.92;38.49
69436;SHT31;56625;54.322;18.582;2022-08-19T13:54:52;33.95;38.53
69436;SHT31;56625;54.322;18.582;2022-08-19T13:57:34;33.93;37.74
69436;SHT31;56625;54.322;18.582;2022-08-19T14:00:10;33.84;37.81
69436;SHT31;56625;54.322;18.582;2022-08-19T14:03:06;33.71;38.41
69436;SHT31;56625;54.322;18.582;2022-08-19T14:05:42;33.72;38.56
69436;SHT31;56625;54.322;18.582;2022-08-19T14:08:46;33.80;38.38
69436;SHT31;56625;54.322;18.582;2022-08-19T14:11:14;33.90;38.41
69436;SHT31;56625;54.322;18.582;2022-08-19T14:13:49;33.94;38.51
69436;SHT31;56625;54.322;18.582;2022-08-19T14:16:20;33.95;38.56
69436;SHT31;56625;54.322;18.582;2022-08-19T14:18:56;33.90;38.60
69436;SHT31;56625;54.322;18.582;2022-08-19T14:21:40;33.90;39.10
69436;SHT31;56625;54.322;18.582;2022-08-19T14:24:12;33.85;38.69
69436;SHT31;56625;54.322;18.582;2022-08-19T14:26:42;33.72;39.02
69436;SHT31;56625;54.322;18.582;2022-08-19T14:29:11;33.65;38.90
69436;SHT31;56625;54.322;18.582;2022-08-19T14:32:00;33.58;39.07
69436;SHT31;56625;54.322;18.582;2022-08-19T14:34:28;33.39;39.30
69436;SHT31;56625;54.322;18.582;2022-08-19T14:36:56;33.20;39.90
69436;SHT31;56625;54.322;18.582;2022-08-19T14:39:28;33.13;40.25
69436;SHT31;56625;54.322;18.582;2022-08-19T14:41:56;33.06;40.18
69436;SHT31;56625;54.322;18.582;2022-08-19T14:44:28;33.02;40.21
69436;SHT31;56625;54.322;18.582;2022-08-19T14:47:01;32.99;40.17
69436;SHT31;56625;54.322;18.582;2022-08-19T14:49:30;32.97;40.60
69436;SHT31;56625;54.322;18.582;2022-08-19T14:52:08;32.94;40.79
69436;SHT31;56625;54.322;18.582;2022-08-19T14:54:35;32.86;40.61
69436;SHT31;56625;54.322;18.582;2022-08-19T14:57:03;32.79;40.62
69436;SHT31;56625;54.322;18.582;2022-08-19T14:59:31;32.73;40.86
69436;SHT31;56625;54.322;18.582;2022-08-19T15:02:01;32.75;41.08
69436;SHT31;56625;54.322;18.582;2022-08-19T15:04:49;32.76;41.11
69436;SHT31;56625;54.322;18.582;2022-08-19T15:07:25;32.75;40.99
69436;SHT31;56625;54.322;18.582;2022-08-19T15:09:56;32.74;41.21
69436;SHT31;56625;54.322;18.582;2022-08-19T15:12:25;32.76;41.57
69436;SHT31;56625;54.322;18.582;2022-08-19T15:14:53;32.74;41.78
69436;SHT31;56625;54.322;18.582;2022-08-19T15:17:23;32.66;42.00
69436;SHT31;56625;54.322;18.582;2022-08-19T15:20:12;32.57;42.28
69436;SHT31;56625;54.322;18.582;2022-08-19T15:22:46;32.52;42.31
69436;SHT31;56625;54.322;18.582;2022-08-19T15:25:16;32.47;42.49
69436;SHT31;56625;54.322;18.582;2022-08-19T15:27:46;32.43;42.74
69436;SHT31;56625;54.322;18.582;2022-08-19T15:30:19;32.41;42.83
69436;SHT31;56625;54.322;18.582;2022-08-19T15:32:51;32.37;42.90
69436;SHT31;56625;54.322;18.582;2022-08-19T15:35:21;32.31;42.82
69436;SHT31;56625;54.322;18.582;2022-08-19T15:37:51;32.26;42.93
69436;SHT31;56625;54.322;18.582;2022-08-19T15:40:23;32.23;43.19
69436;SHT31;56625;54.322;18.582;2022-08-19T15:42:54;32.19;43.45
69436;SHT31;56625;54.322;18.582;2022-08-19T15:45:23;32.16;43.53
69436;SHT31;56625;54.322;18.582;2022-08-19T15:48:03;32.12;43.59
69436;SHT31;56625;54.322;18.582;2022-08-19T15:50:32;32.09;43.70
69436;SHT31;56625;54.322;18.582;2022-08-19T15:53:03;32.10;43.77
69436;SHT31;56625;54.322;18.582;2022-08-19T15:55:36;32.13;43.75
69436;SHT31;56625;54.322;18.582;2022-08-19T15:58:13;32.16;43.39
69436;SHT31;56625;54.322;18.582;2022-08-19T16:01:02;32.17;43.11
69436;SHT31;56625;54.322;18.582;2022-08-19T16:03:54;32.17;42.65
69436;SHT31;56625;54.322;18.582;2022-08-19T16:06:45;32.16;42.40
69436;SHT31;56625;54.322;18.582;2022-08-19T16:09:25;32.19;42.17
69436;SHT31;56625;54.322;18.582;2022-08-19T16:11:58;32.16;41.72
69436;SHT31;56625;54.322;18.582;2022-08-19T16:14:30;32.10;41.74
69436;SHT31;56625;54.322;18.582;2022-08-19T16:17:01;32.06;42.10
69436;SHT31;56625;54.322;18.582;2022-08-19T16:19:30;31.99;42.03
69436;SHT31;56625;54.322;18.582;2022-08-19T16:22:00;31.93;42.25
69436;SHT31;56625;54.322;18.582;2022-08-19T16:24:28;31.85;42.25
69436;SHT31;56625;54.322;18.582;2022-08-19T16:26:57;31.77;42.57
69436;SHT31;56625;54.322;18.582;2022-08-19T16:29:28;31.73;42.91
69436;SHT31;56625;54.322;18.582;2022-08-19T16:32:06;31.65;43.32
69436;SHT31;56625;54.322;18.582;2022-08-19T16:34:38;31.58;43.74
69436;SHT31;56625;54.322;18.582;2022-08-19T16:37:09;31.51;43.94